sensor_id;sensor_type;location;lat;lon;timestamp;temperature;humidity
14210;DHT22;7188;56.070;12.698;2024-02-16T00:01:49;8.30;99.90
14210;DHT22;7188;56.070;12.698;2024-02-16T00:04:15;8.30;99.90
14210;DHT22;7188;56.070;12.698;2024-02-16T00:06:40;8.30;99.90
14210;DHT22;7188;56.070;12.698;2024-02-16T00:09:06;8.20;99.90
14210;DHT22;7188;56.070;12.698;2024-02-16T00:11:36;8.20;99.90
14210;DHT22;7188;56.070;12.698;2024-02-16T00:14:01;8.20;99.90
14210;DHT22;7188;56.070;12.698;2024-02-16T00:16:27;8.20;99.90
14210;DHT22;7188;56.070;12.698;2024-02-16T00:18:53;8.30;99.90
14210;DHT22;7188;56.070;12.698;2024-02-16T00:21:18;8.30;99.90
14210;DHT22;7188;56.070;12.698;2024-02-16T00:23:45;8.30;99.90
14210;DHT22;7188;56.070;12.698;2024-02-16T00:26:12;8.40;99.90
14210;DHT22;7188;56.070;12.698;2024-02-16T00:28:37;8.40;99.90
14210;DHT22;7188;56.070;12.698;2024-02-16T00:31:03;8.40;99.90
14210;DHT22;7188;56.070;12.698;2024-02-16T00:33:30;8.40;99.90
14210;DHT22;7188;56.070;12.698;2024-02-16T00:35:56;8.40;99.90
14210;DHT22;7188;56.070;12.698;2024-02-16T00:38:22;8.40;99.90
14210;DHT22;7188;56.070;12.698;2024-02-16T00:40:48;8.40;99.90
14210;DHT22;7188;56.070;12.698;2024-02-16T00:43:15;8.40;99.90
14210;DHT22;7188;56.070;12.698;2024-02-16T00:45:40;8.40;99.90
14210;DHT22;7188;56.070;12.698;2024-02-16T00:48:09;8.40;99.90
14210;DHT22;7188;56.070;12.698;2024-02-16T00:50:35;8.50;99.90
14210;DHT22;7188;56.070;12.698;2024-02-16T00:53:01;8.40;99.90
14210;DHT22;7188;56.070;12.698;2024-02-16T00:55:26;8.40;99.90
14210;DHT22;7188;56.070;12.698;2024-02-16T00:57:52;8.40;99.90
14210;DHT22;7188;56.070;12.698;2024-02-16T01:00:18;8.40;99.90
14210;DHT22;7188;56.070;12.698;2024-02-16T01:02:45;8.40;99.90
14210;DHT22;7188;56.070;12.698;2024-02-16T01:05:10;8.40;99.90
14210;DHT22;7188;56.070;12.698;2024-02-16T01:07:36;8.40;99.90
14210;DHT22;7188;56.070;12.698;2024-02-16T01:10:02;8.40;99.90
14210;DHT22;7188;56.070;12.698;2024-02-16T01:12:31;8.40;99.90
14210;DHT22;7188;56.070;12.698;2024-02-16T01:14:57;8.30;99.90
14210;DHT22;7188;56.070;12.698;2024-02-16T01:17:22;8.30;99.90
14210;DHT22;7188;56.070;12.698;2024-02-16T01:19:48;8.40;99.90
14210;DHT22;7188;56.070;12.698;2024-02-16T01:22:14;8.40;99.90
14210;DHT22;7188;56.070;12.698;2024-02-16T01:24:39;8.40;99.90
14210;DHT22;7188;56.070;12.698;2024-02-16T01:27:05;8.40;99.90
14210;DHT22;7188;56.070;12.698;2024-02-16T01:29:31;8.40;99.90
14210;DHT22;7188;56.070;12.698;2024-02-16T01:31:58;8.50;99.90
14210;DHT22;7188;56.070;12.698;2024-02-16T01:34:24;8.40;99.90
14210;DHT22;7188;56.070;12.698;2024-02-16T01:36:49;8.40;99.90
14210;DHT22;7188;56.070;12.698;2024-02-16T01:39:15;8.50;99.90
14210;DHT22;7188;56.070;12.698;2024-02-16T01:41:40;8.50;99.90
14210;DHT22;7188;56.070;12.698;2024-02-16T01:44:06;8.50;99.90
14210;DHT22;7188;56.070;12.698;2024-02-16T01:46:33;8.50;99.90
14210;DHT22;7188;56.070;12.698;2024-02-16T01:48:59;8.60;99.90
14210;DHT22;7188;56.070;12.698;2024-02-16T01:51:25;8.60;99.90
14210;DHT22;7188;56.070;12.698;2024-02-16T01:53:52;8.70;99.90
14210;DHT22;7188;56.070;12.698;2024-02-16T01:56:20;8.70;99.90
14210;DHT22;7188;56.070;12.698;2024-02-16T01:58:47;8.70;99.90
14210;DHT22;7188;56.070;12.698;2024-02-16T02:01:13;8.70;99.90
14210;DHT22;7188;56.070;12.698;2024-02-16T02:03:39;8.70;99.90
14210;DHT22;7188;56.070;12.698;2024-02-16T02:06:04;8.70;99.90
14210;DHT22;7188;56.070;12.698;2024-02-16T02:08:30;8.70;99.90
14210;DHT22;7188;56.070;12.698;2024-02-16T02:10:56;8.80;99.90
14210;DHT22;7188;56.070;12.698;2024-02-16T02:13:22;8.80;99.90
14210;DHT22;7188;56.070;12.698;2024-02-16T02:15:48;8.80;99.90
14210;DHT22;7188;56.070;12.698;2024-02-16T02:18:13;8.90;99.90
14210;DHT22;7188;56.070;12.698;2024-02-16T02:20:39;8.90;99.90
14210;DHT22;7188;56.070;12.698;2024-02-16T02:23:05;8.90;99.90
14210;DHT22;7188;56.070;12.698;2024-02-16T02:25:30;9.00;99.90
14210;DHT22;7188;56.070;12.698;2024-02-16T02:27:56;9.00;99.90
14210;DHT22;7188;56.070;12.698;2024-02-16T02:30:22;9.00;99.90
14210;DHT22;7188;56.070;12.698;2024-02-16T02:32:50;9.10;99.90
14210;DHT22;7188;56.070;12.698;2024-02-16T02:35:18;9.10;99.90
14210;DHT22;7188;56.070;12.698;2024-02-16T02:37:44;9.00;99.90
14210;DHT22;7188;56.070;12.698;2024-02-16T02:40:10;9.00;99.90
14210;DHT22;7188;56.070;12.698;2024-02-16T02:42:35;9.00;99.90
14210;DHT22;7188;56.070;12.698;2024-02-16T02:45:02;9.00;99.90
14210;DHT22;7188;56.070;12.698;2024-02-16T02:47:28;9.00;99.90
14210;DHT22;7188;56.070;12.698;2024-02-16T02:49:53;9.00;99.90
14210;DHT22;7188;56.070;12.698;2024-02-16T02:52:20;9.00;99.90
14210;DHT22;7188;56.070;12.698;2024-02-16T02:54:46;9.00;99.90
14210;DHT22;7188;56.070;12.698;2024-02-16T02:57:12;9.00;99.90
14210;DHT22;7188;56.070;12.698;2024-02-16T02:59:37;9.00;99.90
14210;DHT22;7188;56.070;12.698;2024-02-16T03:02:04;9.00;99.90
14210;DHT22;7188;56.070;12.698;2024-02-16T03:04:29;9.00;99.90
14210;DHT22;7188;56.070;12.698;2024-02-16T03:06:55;9.00;99.90
14210;DHT22;7188;56.070;12.698;2024-02-16T03:09:20;9.00;99.90
14210;DHT22;7188;56.070;12.698;2024-02-16T03:11:48;8.90;99.90
14210;DHT22;7188;56.070;12.698;2024-02-16T03:14:13;8.90;99.90
14210;DHT22;7188;56.070;12.698;2024-02-16T03:16:39;8.90;99.90
14210;DHT22;7188;56.070;12.698;2024-02-16T03:19:23;8.90;99.90
14210;DHT22;7188;56.070;12.698;2024-02-16T03:21:48;9.00;99.90
14210;DHT22;7188;56.070;12.698;2024-02-16T03:24:14;9.00;99.90
14210;DHT22;7188;56.070;12.698;2024-02-16T03:26:40;9.00;99.90
14210;DHT22;7188;56.070;12.698;2024-02-16T03:29:05;9.00;99.90
14210;DHT22;7188;56.070;12.698;2024-02-16T03:31:32;9.00;99.90
14210;DHT22;7188;56.070;12.698;2024-02-16T03:33:58;9.00;99.90
14210;DHT22;7188;56.070;12.698;2024-02-16T03:36:24;8.90;99.90
14210;DHT22;7188;56.070;12.698;2024-02-16T03:38:50;8.90;99.90
14210;DHT22;7188;56.070;12.698;2024-02-16T03:41:20;8.80;99.90
14210;DHT22;7188;56.070;12.698;2024-02-16T03:43:46;8.80;99.90
14210;DHT22;7188;56.070;12.698;2024-02-16T03:46:12;8.80;99.90
14210;DHT22;7188;56.070;12.698;2024-02-16T03:48:39;8.90;99.90
14210;DHT22;7188;56.070;12.698;2024-02-16T03:51:05;8.80;99.90
14210;DHT22;7188;56.070;12.698;2024-02-16T03:53:31;8.80;99.90
14210;DHT22;7188;56.070;12.698;2024-02-16T03:55:57;8.80;99.90
14210;DHT22;7188;56.070;12.698;2024-02-16T03:58:23;8.80;99.90
14210;DHT22;7188;56.070;12.698;2024-02-16T04:00:49;8.90;99.90
14210;DHT22;7188;56.070;12.698;2024-02-16T04:03:15;8.80;99.90
14210;DHT22;7188;56.070;12.698;2024-02-16T04:05:42;8.80;99.90
14210;DHT22;7188;56.070;12.698;2024-02-16T04:08:08;8.70;99.90
14210;DHT22;7188;56.070;12.698;2024-02-16T04:10:34;8.70;99.90
14210;DHT22;7188;56.070;12.698;2024-02-16T04:13:00;8.70;99.90
14210;DHT22;7188;56.070;12.698;2024-02-16T04:15:26;8.70;99.90
14210;DHT22;7188;56.070;12.698;2024-02-16T04:17:52;8.70;99.90
14210;DHT22;7188;56.070;12.698;2024-02-16T04:20:18;8.70;99.90
14210;DHT22;7188;56.070;12.698;2024-02-16T04:22:44;8.70;99.90
14210;DHT22;7188;56.070;12.698;2024-02-16T04:25:10;8.60;99.90
14210;DHT22;7188;56.070;12.698;2024-02-16T04:27:36;8.60;99.90
14210;DHT22;7188;56.070;12.698;2024-02-16T04:30:05;8.70;99.90
14210;DHT22;7188;56.070;12.698;2024-02-16T04:32:32;8.70;99.90
14210;DHT22;7188;56.070;12.698;2024-02-16T04:34:58;8.70;99.90
14210;DHT22;7188;56.070;12.698;2024-02-16T04:37:25;8.80;99.90
14210;DHT22;7188;56.070;12.698;2024-02-16T04:39:50;8.80;99.90
14210;DHT22;7188;56.070;12.698;2024-02-16T04:42:16;8.70;99.90
14210;DHT22;7188;56.070;12.698;2024-02-16T04:44:42;8.70;99.90
14210;DHT22;7188;56.070;12.698;2024-02-16T04:47:08;8.70;99.90
14210;DHT22;7188;56.070;12.698;2024-02-16T04:49:35;8.70;99.90
14210;DHT22;7188;56.070;12.698;2024-02-16T04:52:00;8.70;99.90
14210;DHT22;7188;56.070;12.698;2024-02-16T04:54:26;8.70;99.90
14210;DHT22;7188;56.070;12.698;2024-02-16T04:56:52;8.70;99.90
14210;DHT22;7188;56.070;12.698;2024-02-16T04:59:17;8.70;99.90
14210;DHT22;7188;56.070;12.698;2024-02-16T05:01:43;8.70;99.90
14210;DHT22;7188;56.070;12.698;2024-02-16T05:04:10;8.70;99.90
14210;DHT22;7188;56.070;12.698;2024-02-16T05:06:40;8.70;99.90
14210;DHT22;7188;56.070;12.698;2024-02-16T05:09:06;8.70;99.90
14210;DHT22;7188;56.070;12.698;2024-02-16T05:11:32;8.70;99.90
14210;DHT22;7188;56.070;12.698;2024-02-16T05:13:58;8.70;99.90
14210;DHT22;7188;56.070;12.698;2024-02-16T05:16:25;8.80;99.90
14210;DHT22;7188;56.070;12.698;2024-02-16T05:18:51;8.80;99.90
14210;DHT22;7188;56.070;12.698;2024-02-16T05:21:17;8.90;99.90
14210;DHT22;7188;56.070;12.698;2024-02-16T05:23:43;9.00;99.90
14210;DHT22;7188;56.070;12.698;2024-02-16T05:26:08;9.10;99.90
14210;DHT22;7188;56.070;12.698;2024-02-16T05:28:34;9.20;99.90
14210;DHT22;7188;56.070;12.698;2024-02-16T05:31:16;9.30;99.90
14210;DHT22;7188;56.070;12.698;2024-02-16T05:33:49;9.30;99.90
14210;DHT22;7188;56.070;12.698;2024-02-16T05:36:18;9.30;99.90
14210;DHT22;7188;56.070;12.698;2024-02-16T05:38:46;9.40;99.90
14210;DHT22;7188;56.070;12.698;2024-02-16T05:41:12;9.50;99.90
14210;DHT22;7188;56.070;12.698;2024-02-16T05:43:38;9.50;99.90
14210;DHT22;7188;56.070;12.698;2024-02-16T05:46:04;9.60;99.90
14210;DHT22;7188;56.070;12.698;2024-02-16T05:48:33;9.60;99.90
14210;DHT22;7188;56.070;12.698;2024-02-16T05:51:03;9.60;99.90
14210;DHT22;7188;56.070;12.698;2024-02-16T05:53:29;9.60;99.90
14210;DHT22;7188;56.070;12.698;2024-02-16T05:55:54;9.60;99.90
14210;DHT22;7188;56.070;12.698;2024-02-16T05:58:38;9.60;99.90
14210;DHT22;7188;56.070;12.698;2024-02-16T06:01:04;9.50;99.90
14210;DHT22;7188;56.070;12.698;2024-02-16T06:03:30;9.50;99.90
14210;DHT22;7188;56.070;12.698;2024-02-16T06:05:55;9.40;99.90
14210;DHT22;7188;56.070;12.698;2024-02-16T06:08:21;9.40;99.90
14210;DHT22;7188;56.070;12.698;2024-02-16T06:10:47;9.40;99.90
14210;DHT22;7188;56.070;12.698;2024-02-16T06:13:20;9.40;99.90
14210;DHT22;7188;56.070;12.698;2024-02-16T06:15:46;9.30;99.90
14210;DHT22;7188;56.070;12.698;2024-02-16T06:18:12;9.30;99.90
14210;DHT22;7188;56.070;12.698;2024-02-16T06:20:38;9.30;99.90
14210;DHT22;7188;56.070;12.698;2024-02-16T06:23:03;9.30;99.90
14210;DHT22;7188;56.070;12.698;2024-02-16T06:25:29;9.30;99.90
14210;DHT22;7188;56.070;12.698;2024-02-16T06:27:55;9.30;99.90
14210;DHT22;7188;56.070;12.698;2024-02-16T06:30:20;9.20;99.90
14210;DHT22;7188;56.070;12.698;2024-02-16T06:32:47;9.20;99.90
14210;DHT22;7188;56.070;12.698;2024-02-16T06:35:12;9.20;99.90
14210;DHT22;7188;56.070;12.698;2024-02-16T06:37:38;9.20;99.90
14210;DHT22;7188;56.070;12.698;2024-02-16T06:40:05;9.20;99.90
14210;DHT22;7188;56.070;12.698;2024-02-16T06:42:31;9.20;99.90
14210;DHT22;7188;56.070;12.698;2024-02-16T06:44:57;9.20;99.90
14210;DHT22;7188;56.070;12.698;2024-02-16T06:47:22;9.20;99.90
14210;DHT22;7188;56.070;12.698;2024-02-16T06:49:50;9.30;99.90
14210;DHT22;7188;56.070;12.698;2024-02-16T06:52:16;9.30;99.90
14210;DHT22;7188;56.070;12.698;2024-02-16T06:54:42;9.30;99.90
14210;DHT22;7188;56.070;12.698;2024-02-16T06:57:07;9.30;99.90
14210;DHT22;7188;56.070;12.698;2024-02-16T06:59:33;9.30;99.90
14210;DHT22;7188;56.070;12.698;2024-02-16T07:01:58;9.30;99.90
14210;DHT22;7188;56.070;12.698;2024-02-16T07:04:24;9.30;99.90
14210;DHT22;7188;56.070;12.698;2024-02-16T07:06:50;9.30;99.90
14210;DHT22;7188;56.070;12.698;2024-02-16T07:09:16;9.30;99.90
14210;DHT22;7188;56.070;12.698;2024-02-16T07:11:41;9.20;99.90
14210;DHT22;7188;56.070;12.698;2024-02-16T07:14:08;9.20;99.90
14210;DHT22;7188;56.070;12.698;2024-02-16T07:16:34;9.10;99.90
14210;DHT22;7188;56.070;12.698;2024-02-16T07:18:59;9.10;99.90
14210;DHT22;7188;56.070;12.698;2024-02-16T07:21:25;9.10;99.90
14210;DHT22;7188;56.070;12.698;2024-02-16T07:23:52;9.20;99.90
14210;DHT22;7188;56.070;12.698;2024-02-16T07:26:18;9.10;99.90
14210;DHT22;7188;56.070;12.698;2024-02-16T07:28:43;9.20;99.90
14210;DHT22;7188;56.070;12.698;2024-02-16T07:31:09;9.20;99.90
14210;DHT22;7188;56.070;12.698;2024-02-16T07:33:36;9.20;99.90
14210;DHT22;7188;56.070;12.698;2024-02-16T07:36:02;9.20;99.90
14210;DHT22;7188;56.070;12.698;2024-02-16T07:38:27;9.20;99.90
14210;DHT22;7188;56.070;12.698;2024-02-16T07:40:54;9.20;99.90
14210;DHT22;7188;56.070;12.698;2024-02-16T07:43:20;9.20;99.90
14210;DHT22;7188;56.070;12.698;2024-02-16T07:45:53;9.20;99.90
14210;DHT22;7188;56.070;12.698;2024-02-16T07:48:20;9.20;99.90
14210;DHT22;7188;56.070;12.698;2024-02-16T07:50:47;9.20;99.90
14210;DHT22;7188;56.070;12.698;2024-02-16T07:53:12;9.20;99.90
14210;DHT22;7188;56.070;12.698;2024-02-16T07:55:38;9.20;99.90
14210;DHT22;7188;56.070;12.698;2024-02-16T07:58:03;9.20;99.90
14210;DHT22;7188;56.070;12.698;2024-02-16T08:00:29;9.20;99.90
14210;DHT22;7188;56.070;12.698;2024-02-16T08:02:55;9.20;99.90
14210;DHT22;7188;56.070;12.698;2024-02-16T08:05:20;9.20;99.90
14210;DHT22;7188;56.070;12.698;2024-02-16T08:07:47;9.30;99.90
14210;DHT22;7188;56.070;12.698;2024-02-16T08:10:13;9.30;99.90
14210;DHT22;7188;56.070;12.698;2024-02-16T08:12:39;9.30;99.90
14210;DHT22;7188;56.070;12.698;2024-02-16T08:15:06;9.30;99.90
14210;DHT22;7188;56.070;12.698;2024-02-16T08:17:36;9.30;99.90
14210;DHT22;7188;56.070;12.698;2024-02-16T08:20:02;9.30;99.90
14210;DHT22;7188;56.070;12.698;2024-02-16T08:22:28;9.40;99.90
14210;DHT22;7188;56.070;12.698;2024-02-16T08:24:54;9.40;99.90
14210;DHT22;7188;56.070;12.698;2024-02-16T08:27:20;9.40;99.90
14210;DHT22;7188;56.070;12.698;2024-02-16T08:29:46;9.40;99.90
14210;DHT22;7188;56.070;12.698;2024-02-16T08:32:11;9.40;99.90
14210;DHT22;7188;56.070;12.698;2024-02-16T08:34:38;9.40;99.90
14210;DHT22;7188;56.070;12.698;2024-02-16T08:37:04;9.40;99.90
14210;DHT22;7188;56.070;12.698;2024-02-16T08:39:31;9.40;99.90
14210;DHT22;7188;56.070;12.698;2024-02-16T08:41:57;9.50;99.90
14210;DHT22;7188;56.070;12.698;2024-02-16T08:44:25;9.40;99.90
14210;DHT22;7188;56.070;12.698;2024-02-16T08:46:51;9.40;99.90
14210;DHT22;7188;56.070;12.698;2024-02-16T08:49:16;9.40;99.90
14210;DHT22;7188;56.070;12.698;2024-02-16T08:51:43;9.40;99.90
14210;DHT22;7188;56.070;12.698;2024-02-16T08:54:09;9.40;99.90
14210;DHT22;7188;56.070;12.698;2024-02-16T08:56:35;9.40;99.90
14210;DHT22;7188;56.070;12.698;2024-02-16T08:59:03;9.30;99.90
14210;DHT22;7188;56.070;12.698;2024-02-16T09:01:36;9.30;99.90
14210;DHT22;7188;56.070;12.698;2024-02-16T09:04:02;9.30;99.90
14210;DHT22;7188;56.070;12.698;2024-02-16T09:06:28;9.30;99.90
14210;DHT22;7188;56.070;12.698;2024-02-16T09:08:55;9.20;99.90
14210;DHT22;7188;56.070;12.698;2024-02-16T09:11:21;9.20;99.90
14210;DHT22;7188;56.070;12.698;2024-02-16T09:13:47;9.20;99.90
14210;DHT22;7188;56.070;12.698;2024-02-16T09:16:13;9.20;99.90
14210;DHT22;7188;56.070;12.698;2024-02-16T09:18:38;9.20;99.90
14210;DHT22;7188;56.070;12.698;2024-02-16T09:21:05;9.20;99.90
14210;DHT22;7188;56.070;12.698;2024-02-16T09:23:32;9.20;99.90
14210;DHT22;7188;56.070;12.698;2024-02-16T09:25:57;9.20;99.90
14210;DHT22;7188;56.070;12.698;2024-02-16T09:28:24;9.30;99.90
14210;DHT22;7188;56.070;12.698;2024-02-16T09:30:50;9.30;99.90
14210;DHT22;7188;56.070;12.698;2024-02-16T09:33:16;9.30;99.90
14210;DHT22;7188;56.070;12.698;2024-02-16T09:35:41;9.40;99.90
14210;DHT22;7188;56.070;12.698;2024-02-16T09:38:07;9.40;99.90
14210;DHT22;7188;56.070;12.698;2024-02-16T09:40:36;9.40;99.90
14210;DHT22;7188;56.070;12.698;2024-02-16T09:43:01;9.40;99.90
14210;DHT22;7188;56.070;12.698;2024-02-16T09:45:28;9.40;99.90
14210;DHT22;7188;56.070;12.698;2024-02-16T09:47:55;9.40;99.90
14210;DHT22;7188;56.070;12.698;2024-02-16T09:50:21;9.40;99.90
14210;DHT22;7188;56.070;12.698;2024-02-16T09:52:48;9.30;99.90
14210;DHT22;7188;56.070;12.698;2024-02-16T09:55:15;9.30;99.90
14210;DHT22;7188;56.070;12.698;2024-02-16T09:57:41;9.20;99.90
14210;DHT22;7188;56.070;12.698;2024-02-16T10:00:09;9.10;99.90
14210;DHT22;7188;56.070;12.698;2024-02-16T10:02:44;9.10;99.90
14210;DHT22;7188;56.070;12.698;2024-02-16T10:05:16;9.10;99.90
14210;DHT22;7188;56.070;12.698;2024-02-16T10:07:42;9.00;99.90
14210;DHT22;7188;56.070;12.698;2024-02-16T10:10:25;9.00;99.90
14210;DHT22;7188;56.070;12.698;2024-02-16T10:13:05;8.90;99.90
14210;DHT22;7188;56.070;12.698;2024-02-16T10:15:32;8.90;99.90
14210;DHT22;7188;56.070;12.698;2024-02-16T10:18:05;8.80;99.90
14210;DHT22;7188;56.070;12.698;2024-02-16T10:20:32;8.80;99.90
14210;DHT22;7188;56.070;12.698;2024-02-16T10:23:10;8.80;99.90
14210;DHT22;7188;56.070;12.698;2024-02-16T10:25:38;8.70;99.90
14210;DHT22;7188;56.070;12.698;2024-02-16T10:28:09;8.70;99.90
14210;DHT22;7188;56.070;12.698;2024-02-16T10:30:37;8.60;99.90
14210;DHT22;7188;56.070;12.698;2024-02-16T10:33:05;8.60;99.90
14210;DHT22;7188;56.070;12.698;2024-02-16T10:35:31;8.60;99.90
14210;DHT22;7188;56.070;12.698;2024-02-16T10:38:04;8.70;99.90
14210;DHT22;7188;56.070;12.698;2024-02-16T10:40:38;8.70;99.90
14210;DHT22;7188;56.070;12.698;2024-02-16T10:43:04;8.80;99.90
14210;DHT22;7188;56.070;12.698;2024-02-16T10:45:35;8.90;99.90
14210;DHT22;7188;56.070;12.698;2024-02-16T10:48:06;8.90;99.90
14210;DHT22;7188;56.070;12.698;2024-02-16T10:50:34;8.90;99.90
14210;DHT22;7188;56.070;12.698;2024-02-16T10:53:26;8.90;99.90
14210;DHT22;7188;56.070;12.698;2024-02-16T10:55:57;8.90;99.90
14210;DHT22;7188;56.070;12.698;2024-02-16T10:58:24;9.00;99.90
14210;DHT22;7188;56.070;12.698;2024-02-16T11:00:54;8.90;99.90
14210;DHT22;7188;56.070;12.698;2024-02-16T11:03:27;8.90;99.90
14210;DHT22;7188;56.070;12.698;2024-02-16T11:05:53;8.90;99.90
14210;DHT22;7188;56.070;12.698;2024-02-16T11:08:22;8.80;99.90
14210;DHT22;7188;56.070;12.698;2024-02-16T11:10:59;8.90;99.90
14210;DHT22;7188;56.070;12.698;2024-02-16T11:13:26;8.80;99.90
14210;DHT22;7188;56.070;12.698;2024-02-16T11:16:00;8.90;99.90
14210;DHT22;7188;56.070;12.698;2024-02-16T11:18:28;8.80;99.90
14210;DHT22;7188;56.070;12.698;2024-02-16T11:20:54;8.80;99.90
14210;DHT22;7188;56.070;12.698;2024-02-16T11:23:27;8.80;99.90
14210;DHT22;7188;56.070;12.698;2024-02-16T11:26:04;8.80;99.90
14210;DHT22;7188;56.070;12.698;2024-02-16T11:28:33;8.90;99.90
14210;DHT22;7188;56.070;12.698;2024-02-16T11:30:59;9.00;99.90
14210;DHT22;7188;56.070;12.698;2024-02-16T11:33:25;9.20;99.90
14210;DHT22;7188;56.070;12.698;2024-02-16T11:35:57;9.30;99.90
14210;DHT22;7188;56.070;12.698;2024-02-16T11:38:24;9.40;99.90
14210;DHT22;7188;56.070;12.698;2024-02-16T11:40:54;9.40;99.90
14210;DHT22;7188;56.070;12.698;2024-02-16T11:43:23;9.30;99.90
14210;DHT22;7188;56.070;12.698;2024-02-16T11:45:49;9.30;99.90
14210;DHT22;7188;56.070;12.698;2024-02-16T11:48:26;9.20;99.90
14210;DHT22;7188;56.070;12.698;2024-02-16T11:51:03;9.20;99.90
14210;DHT22;7188;56.070;12.698;2024-02-16T11:53:30;9.10;99.90
14210;DHT22;7188;56.070;12.698;2024-02-16T11:55:56;9.10;99.90
14210;DHT22;7188;56.070;12.698;2024-02-16T11:58:22;9.00;99.90
14210;DHT22;7188;56.070;12.698;2024-02-16T12:00:49;9.00;99.90
14210;DHT22;7188;56.070;12.698;2024-02-16T12:03:23;9.00;99.90
14210;DHT22;7188;56.070;12.698;2024-02-16T12:05:56;9.00;99.90
14210;DHT22;7188;56.070;12.698;2024-02-16T12:08:23;9.00;99.90
14210;DHT22;7188;56.070;12.698;2024-02-16T12:10:50;9.00;99.90
14210;DHT22;7188;56.070;12.698;2024-02-16T12:13:18;9.10;99.90
14210;DHT22;7188;56.070;12.698;2024-02-16T12:15:48;9.10;99.90
14210;DHT22;7188;56.070;12.698;2024-02-16T12:18:23;9.10;99.90
14210;DHT22;7188;56.070;12.698;2024-02-16T12:21:04;9.00;99.90
14210;DHT22;7188;56.070;12.698;2024-02-16T12:23:32;9.10;99.90
14210;DHT22;7188;56.070;12.698;2024-02-16T12:25:58;9.10;99.90
14210;DHT22;7188;56.070;12.698;2024-02-16T12:28:26;9.10;99.90
14210;DHT22;7188;56.070;12.698;2024-02-16T12:30:52;9.20;99.90
14210;DHT22;7188;56.070;12.698;2024-02-16T12:33:18;9.20;99.90
14210;DHT22;7188;56.070;12.698;2024-02-16T12:35:44;9.20;99.90
14210;DHT22;7188;56.070;12.698;2024-02-16T12:38:11;9.30;99.90
14210;DHT22;7188;56.070;12.698;2024-02-16T12:40:37;9.40;99.90
14210;DHT22;7188;56.070;12.698;2024-02-16T12:43:03;9.40;99.90
14210;DHT22;7188;56.070;12.698;2024-02-16T12:45:29;9.30;99.90
14210;DHT22;7188;56.070;12.698;2024-02-16T12:47:55;9.30;99.90
14210;DHT22;7188;56.070;12.698;2024-02-16T12:50:20;9.30;99.90
14210;DHT22;7188;56.070;12.698;2024-02-16T12:52:46;9.30;99.90
14210;DHT22;7188;56.070;12.698;2024-02-16T12:55:12;9.40;99.90
14210;DHT22;7188;56.070;12.698;2024-02-16T12:57:37;9.30;99.90
14210;DHT22;7188;56.070;12.698;2024-02-16T13:00:04;9.30;99.90
14210;DHT22;7188;56.070;12.698;2024-02-16T13:02:30;9.20;99.90
14210;DHT22;7188;56.070;12.698;2024-02-16T13:04:56;9.20;99.90
14210;DHT22;7188;56.070;12.698;2024-02-16T13:07:24;9.20;99.90
14210;DHT22;7188;56.070;12.698;2024-02-16T13:09:49;9.10;99.90
14210;DHT22;7188;56.070;12.698;2024-02-16T13:12:19;9.00;99.90
14210;DHT22;7188;56.070;12.698;2024-02-16T13:14:48;9.00;99.90
14210;DHT22;7188;56.070;12.698;2024-02-16T13:17:13;9.00;99.90
14210;DHT22;7188;56.070;12.698;2024-02-16T13:19:39;9.00;99.90
14210;DHT22;7188;56.070;12.698;2024-02-16T13:22:05;8.90;99.90
14210;DHT22;7188;56.070;12.698;2024-02-16T13:24:30;8.80;99.90
14210;DHT22;7188;56.070;12.698;2024-02-16T13:26:56;8.80;99.90
14210;DHT22;7188;56.070;12.698;2024-02-16T13:29:22;8.70;99.90
14210;DHT22;7188;56.070;12.698;2024-02-16T13:31:47;8.70;99.90
14210;DHT22;7188;56.070;12.698;2024-02-16T13:34:13;8.70;99.90
14210;DHT22;7188;56.070;12.698;2024-02-16T13:36:40;8.70;99.90
14210;DHT22;7188;56.070;12.698;2024-02-16T13:39:07;8.60;99.90
14210;DHT22;7188;56.070;12.698;2024-02-16T13:41:33;8.60;99.90
14210;DHT22;7188;56.070;12.698;2024-02-16T13:43:59;8.60;99.90
14210;DHT22;7188;56.070;12.698;2024-02-16T13:46:25;8.60;99.90
14210;DHT22;7188;56.070;12.698;2024-02-16T13:48:50;8.60;99.90
14210;DHT22;7188;56.070;12.698;2024-02-16T13:51:16;8.50;99.90
14210;DHT22;7188;56.070;12.698;2024-02-16T13:53:42;8.50;99.90
14210;DHT22;7188;56.070;12.698;2024-02-16T13:56:08;8.50;99.90
14210;DHT22;7188;56.070;12.698;2024-02-16T13:58:34;8.50;99.90
14210;DHT22;7188;56.070;12.698;2024-02-16T14:01:00;8.40;99.90
14210;DHT22;7188;56.070;12.698;2024-02-16T14:03:28;8.50;99.90
14210;DHT22;7188;56.070;12.698;2024-02-16T14:05:54;8.50;99.90
14210;DHT22;7188;56.070;12.698;2024-02-16T14:11:42;8.50;99.90
14210;DHT22;7188;56.070;12.698;2024-02-16T14:14:10;8.50;99.90
14210;DHT22;7188;56.070;12.698;2024-02-16T14:16:35;8.50;99.90
14210;DHT22;7188;56.070;12.698;2024-02-16T14:19:01;8.50;99.90
14210;DHT22;7188;56.070;12.698;2024-02-16T14:21:27;8.50;99.90
14210;DHT22;7188;56.070;12.698;2024-02-16T14:23:53;8.50;99.90
14210;DHT22;7188;56.070;12.698;2024-02-16T14:26:19;8.50;99.90
14210;DHT22;7188;56.070;12.698;2024-02-16T14:28:45;8.50;99.90
14210;DHT22;7188;56.070;12.698;2024-02-16T14:31:11;8.40;99.90
14210;DHT22;7188;56.070;12.698;2024-02-16T14:33:39;8.40;99.90
14210;DHT22;7188;56.070;12.698;2024-02-16T14:36:05;8.40;99.90
14210;DHT22;7188;56.070;12.698;2024-02-16T14:38:34;8.40;99.90
14210;DHT22;7188;56.070;12.698;2024-02-16T14:40:59;8.40;99.90
14210;DHT22;7188;56.070;12.698;2024-02-16T14:43:29;8.30;99.90
14210;DHT22;7188;56.070;12.698;2024-02-16T14:45:57;8.30;99.90
14210;DHT22;7188;56.070;12.698;2024-02-16T14:48:23;8.30;99.90
14210;DHT22;7188;56.070;12.698;2024-02-16T14:50:51;8.30;99.90
14210;DHT22;7188;56.070;12.698;2024-02-16T14:53:21;8.20;99.90
14210;DHT22;7188;56.070;12.698;2024-02-16T14:55:48;8.20;99.90
14210;DHT22;7188;56.070;12.698;2024-02-16T14:58:13;8.10;99.90
14210;DHT22;7188;56.070;12.698;2024-02-16T15:00:39;8.20;99.90
14210;DHT22;7188;56.070;12.698;2024-02-16T15:03:05;8.10;99.90
14210;DHT22;7188;56.070;12.698;2024-02-16T15:05:31;8.10;99.90
14210;DHT22;7188;56.070;12.698;2024-02-16T15:07:56;8.10;99.90
14210;DHT22;7188;56.070;12.698;2024-02-16T15:10:22;8.10;99.90
14210;DHT22;7188;56.070;12.698;2024-02-16T15:12:49;8.10;99.90
14210;DHT22;7188;56.070;12.698;2024-02-16T15:15:15;8.00;99.90
14210;DHT22;7188;56.070;12.698;2024-02-16T15:17:40;8.00;99.90
14210;DHT22;7188;56.070;12.698;2024-02-16T15:20:06;8.00;99.90
14210;DHT22;7188;56.070;12.698;2024-02-16T15:22:33;8.00;99.90
14210;DHT22;7188;56.070;12.698;2024-02-16T15:24:59;8.00;99.90
14210;DHT22;7188;56.070;12.698;2024-02-16T15:27:24;8.00;99.90
14210;DHT22;7188;56.070;12.698;2024-02-16T15:29:51;7.90;99.90
14210;DHT22;7188;56.070;12.698;2024-02-16T15:32:17;7.90;99.90
14210;DHT22;7188;56.070;12.698;2024-02-16T15:34:43;7.80;99.90
14210;DHT22;7188;56.070;12.698;2024-02-16T15:37:12;7.80;99.90
14210;DHT22;7188;56.070;12.698;2024-02-16T15:39:38;7.80;99.90
14210;DHT22;7188;56.070;12.698;2024-02-16T15:42:04;7.90;99.90
14210;DHT22;7188;56.070;12.698;2024-02-16T15:44:29;7.90;99.90
14210;DHT22;7188;56.070;12.698;2024-02-16T15:46:56;7.90;99.90